Time;durP1;ratioP1;P1;durP2;ratioP2;P2;SDS_P1;SDS_P2;PMS_P1;PMS_P2;Temp;Humidity;BMP_temperature;BMP_pressure;BME280_temperature;BME280_humidity;BME280_pressure;Samples;Min_cycle;Max_cycle;Signal;HPM_P1;HPM_P2
2022/03/29 00:01:01;;;;;;;14.43;8.13;;;;;;;;;;8325139;28;20081;-84
2022/03/29 00:05:04;;;;;;;17.02;7.20;;;;;;;;;;8330099;28;20046;-85
2022/03/29 00:09:07;;;;;;;18.20;7.78;;;;;;;;;;8330093;28;20041;-85
2022/03/29 00:13:11;;;;;;;17.50;8.13;;;;;;;;;;8330015;28;20049;-84
2022/03/29 00:17:14;;;;;;;13.65;6.25;;;;;;;;;;8329834;28;20056;-85
2022/03/29 00:21:16;;;;;;;16.77;7.30;;;;;;;;;;8323482;28;20116;-85
2022/03/29 00:25:19;;;;;;;10.40;5.88;;;;;;;;;;8329694;28;20049;-85
2022/03/29 00:29:24;;;;;;;10.65;6.00;;;;;;;;;;8324577;28;20045;-85
2022/03/29 00:33:26;;;;;;;12.88;6.38;;;;;;;;;;8334467;28;20049;-83
2022/03/29 00:37:29;;;;;;;17.38;8.07;;;;;;;;;;8335738;28;20477;-85
2022/03/29 00:41:32;;;;;;;12.40;5.95;;;;;;;;;;8335485;28;20401;-85
2022/03/29 00:45:36;;;;;;;14.68;6.88;;;;;;;;;;8335456;28;20075;-85
2022/03/29 00:49:39;;;;;;;12.02;6.45;;;;;;;;;;8335412;28;20065;-85
2022/03/29 00:53:42;;;;;;;12.88;7.13;;;;;;;;;;8335229;28;20049;-85
2022/03/29 00:57:46;;;;;;;12.13;6.18;;;;;;;;;;8335160;28;20046;-85
2022/03/29 01:01:51;;;;;;;13.05;6.50;;;;;;;;;;8334602;28;20479;-85
2022/03/29 01:05:54;;;;;;;12.27;6.65;;;;;;;;;;8334875;28;20409;-84
2022/03/29 01:09:58;;;;;;;14.80;6.57;;;;;;;;;;8334820;28;20049;-86
2022/03/29 01:14:01;;;;;;;13.88;6.95;;;;;;;;;;8334691;28;20076;-85
2022/03/29 01:18:06;;;;;;;12.00;6.25;;;;;;;;;;8334509;28;20051;-85
2022/03/29 01:22:12;;;;;;;14.18;6.95;;;;;;;;;;8328426;28;20049;-85
2022/03/29 01:26:16;;;;;;;18.23;6.72;;;;;;;;;;8328182;28;20045;-85
2022/03/29 01:30:20;;;;;;;14.65;7.22;;;;;;;;;;8331526;28;20061;-84
2022/03/29 01:34:23;;;;;;;13.23;7.03;;;;;;;;;;8334415;28;20049;-85
2022/03/29 01:38:27;;;;;;;14.57;7.47;;;;;;;;;;8333850;28;20394;-84
2022/03/29 01:42:30;;;;;;;17.90;8.13;;;;;;;;;;8333162;28;20050;-84
2022/03/29 01:46:32;;;;;;;16.42;7.55;;;;;;;;;;8333675;28;20489;-84
2022/03/29 01:50:35;;;;;;;14.48;7.60;;;;;;;;;;8333494;28;20045;-85
2022/03/29 01:54:39;;;;;;;12.73;6.88;;;;;;;;;;8333415;28;20128;-84
2022/03/29 01:58:41;;;;;;;18.55;7.75;;;;;;;;;;8333367;28;20073;-86
2022/03/29 02:02:44;;;;;;;16.13;7.75;;;;;;;;;;8333017;28;20091;-85
2022/03/29 02:06:46;;;;;;;17.95;8.40;;;;;;;;;;8334749;28;20048;-84
2022/03/29 02:10:51;;;;;;;15.77;7.70;;;;;;;;;;8337547;28;20046;-85
2022/03/29 02:14:53;;;;;;;17.25;8.13;;;;;;;;;;8332740;28;20052;-85
2022/03/29 02:18:56;;;;;;;14.15;7.07;;;;;;;;;;8332756;28;20481;-85
2022/03/29 02:23:02;;;;;;;15.98;7.82;;;;;;;;;;8332434;28;20072;-85
2022/03/29 02:27:06;;;;;;;13.32;6.90;;;;;;;;;;8332428;28;20041;-86
2022/03/29 02:31:10;;;;;;;14.52;7.07;;;;;;;;;;8332263;28;20050;-85
2022/03/29 02:35:14;;;;;;;15.85;6.97;;;;;;;;;;8332117;28;20489;-85
2022/03/29 02:39:16;;;;;;;16.48;7.63;;;;;;;;;;8332016;28;20060;-85
2022/03/29 02:43:20;;;;;;;29.77;11.77;;;;;;;;;;8331761;28;20045;-86
2022/03/29 02:47:23;;;;;;;40.65;18.00;;;;;;;;;;8331772;28;20038;-85
2022/03/29 02:51:26;;;;;;;18.00;9.23;;;;;;;;;;8331547;28;20116;-85
2022/03/29 02:55:30;;;;;;;17.35;8.05;;;;;;;;;;8330763;28;20099;-85
2022/03/29 02:59:34;;;;;;;20.88;8.50;;;;;;;;;;8331137;28;20386;-84
2022/03/29 03:03:37;;;;;;;18.73;8.43;;;;;;;;;;8331311;28;20489;-85
2022/03/29 03:07:39;;;;;;;15.27;7.05;;;;;;;;;;8327534;28;20478;-85
2022/03/29 03:11:42;;;;;;;22.63;7.60;;;;;;;;;;8325641;28;20045;-85
2022/03/29 03:15:46;;;;;;;20.60;9.60;;;;;;;;;;8313015;28;20053;-86
2022/03/29 03:19:49;;;;;;;17.92;7.68;;;;;;;;;;8329831;28;20068;-86
2022/03/29 03:23:52;;;;;;;17.48;7.90;;;;;;;;;;8323462;28;20045;-86
2022/03/29 03:27:55;;;;;;;19.23;7.78;;;;;;;;;;8326443;28;20516;-84
2022/03/29 03:31:59;;;;;;;;;;;;;;;;;;8312449;28;20041;-85
2022/03/29 03:36:01;;;;;;;19.13;8.68;;;;;;;;;;8321387;28;19936;-84
2022/03/29 03:40:05;;;;;;;18.70;8.18;;;;;;;;;;8327793;28;20045;-86
2022/03/29 03:44:09;;;;;;;20.45;9.38;;;;;;;;;;8327500;28;20075;-85
2022/03/29 03:48:13;;;;;;;28.08;12.15;;;;;;;;;;8322259;28;20053;-86
2022/03/29 03:52:16;;;;;;;32.20;13.20;;;;;;;;;;8311525;28;20045;-86
2022/03/29 03:56:19;;;;;;;26.83;12.40;;;;;;;;;;8311935;28;20175;-86
2022/03/29 04:00:23;;;;;;;28.30;12.90;;;;;;;;;;8309275;28;20397;-85
2022/03/29 04:04:27;;;;;;;31.23;13.27;;;;;;;;;;8317799;28;20046;-86
2022/03/29 04:08:30;;;;;;;31.10;13.48;;;;;;;;;;8328896;28;20046;-85
2022/03/29 04:12:32;;;;;;;35.65;20.83;;;;;;;;;;8325274;28;20106;-86
2022/03/29 04:16:35;;;;;;;27.70;12.27;;;;;;;;;;8325117;28;20107;-85
2022/03/29 04:20:40;;;;;;;28.73;15.52;;;;;;;;;;8334046;28;20382;-85
2022/03/29 04:24:45;;;;;;;28.33;12.38;;;;;;;;;;8325421;28;20057;-86
2022/03/29 04:28:48;;;;;;;25.30;11.52;;;;;;;;;;8327041;28;20049;-85
2022/03/29 04:32:51;;;;;;;42.65;18.95;;;;;;;;;;8327321;28;20049;-86
2022/03/29 04:36:55;;;;;;;31.67;13.55;;;;;;;;;;8331111;28;20042;-85
2022/03/29 04:40:58;;;;;;;36.97;19.38;;;;;;;;;;8329161;28;20049;-85
2022/03/29 04:45:00;;;;;;;25.55;15.13;;;;;;;;;;8335584;28;20057;-86
2022/03/29 04:49:06;;;;;;;30.25;16.08;;;;;;;;;;8335442;28;20041;-86
2022/03/29 04:53:10;;;;;;;28.50;12.40;;;;;;;;;;8314095;28;20055;-86
2022/03/29 04:57:13;;;;;;;24.83;11.98;;;;;;;;;;8335110;28;20045;-86
2022/03/29 05:01:16;;;;;;;22.70;10.98;;;;;;;;;;8334376;28;20065;-86
2022/03/29 05:05:18;;;;;;;23.35;11.88;;;;;;;;;;8334907;28;20386;-85
2022/03/29 05:09:22;;;;;;;29.10;13.70;;;;;;;;;;8331553;28;20042;-85
2022/03/29 05:13:25;;;;;;;25.23;12.93;;;;;;;;;;8330222;28;20049;-85
2022/03/29 05:17:30;;;;;;;23.98;12.43;;;;;;;;;;8321149;28;20401;-85
2022/03/29 05:21:32;;;;;;;37.60;20.63;;;;;;;;;;8333917;28;20056;-85
2022/03/29 05:25:37;;;;;;;63.47;27.08;;;;;;;;;;8334297;28;20485;-86
2022/03/29 05:29:40;;;;;;;63.80;28.63;;;;;;;;;;8333867;28;20049;-84
2022/03/29 05:33:43;;;;;;;76.57;35.80;;;;;;;;;;8331782;28;20733;-85
2022/03/29 05:37:46;;;;;;;82.57;37.42;;;;;;;;;;8333652;28;20042;-86
2022/03/29 05:41:51;;;;;;;75.07;34.42;;;;;;;;;;8333525;28;20053;-87
2022/03/29 05:50:10;;;;;;;60.33;25.52;;;;;;;;;;8332472;28;20049;-85
2022/03/29 05:54:13;;;;;;;58.63;26.63;;;;;;;;;;8333488;28;20049;-84
2022/03/29 05:58:20;;;;;;;63.78;28.23;;;;;;;;;;8333426;28;20378;-85
2022/03/29 06:02:24;;;;;;;53.53;23.08;;;;;;;;;;8325646;28;20057;-86
2022/03/29 06:06:27;;;;;;;41.78;20.75;;;;;;;;;;8325221;28;20071;-85
2022/03/29 06:10:30;;;;;;;29.38;15.13;;;;;;;;;;8328610;28;20512;-85
2022/03/29 06:14:34;;;;;;;36.65;18.38;;;;;;;;;;8322446;28;20110;-86
2022/03/29 06:18:37;;;;;;;35.30;15.95;;;;;;;;;;8325915;28;20416;-86
2022/03/29 06:22:43;;;;;;;30.33;14.55;;;;;;;;;;8329963;28;20041;-84
2022/03/29 06:26:46;;;;;;;25.38;11.25;;;;;;;;;;8331032;28;20042;-86
2022/03/29 06:30:51;;;;;;;22.55;11.77;;;;;;;;;;8331682;28;20045;-86
2022/03/29 06:34:54;;;;;;;23.95;11.65;;;;;;;;;;8320244;28;20052;-87
2022/03/29 06:38:57;;;;;;;26.42;11.05;;;;;;;;;;8319933;28;20046;-86
2022/03/29 06:43:00;;;;;;;19.83;10.35;;;;;;;;;;8332327;28;20049;-86
2022/03/29 06:47:06;;;;;;;19.27;10.43;;;;;;;;;;8328668;28;20056;-86
2022/03/29 06:51:09;;;;;;;19.13;8.80;;;;;;;;;;8331707;28;20055;-88
2022/03/29 06:55:14;;;;;;;19.17;8.70;;;;;;;;;;8326305;28;20069;-86
2022/03/29 06:59:16;;;;;;;19.13;9.07;;;;;;;;;;8328427;28;20049;-86
2022/03/29 07:03:21;;;;;;;19.15;9.10;;;;;;;;;;8329065;28;20046;-87
2022/03/29 07:07:24;;;;;;;21.67;9.20;;;;;;;;;;8330573;28;20342;-85
2022/03/29 07:11:27;;;;;;;18.80;9.65;;;;;;;;;;8330095;28;20071;-86
2022/03/29 07:15:30;;;;;;;17.45;9.10;;;;;;;;;;8325821;28;20426;-85
2022/03/29 07:19:34;;;;;;;18.40;9.23;;;;;;;;;;8309228;28;20049;-86
2022/03/29 07:23:37;;;;;;;17.95;9.65;;;;;;;;;;8320982;28;20049;-86
2022/03/29 07:27:40;;;;;;;16.75;9.25;;;;;;;;;;8327425;28;20045;-85
2022/03/29 07:31:46;;;;;;;16.40;8.48;;;;;;;;;;8329398;28;20049;-85
2022/03/29 07:35:50;;;;;;;20.08;9.45;;;;;;;;;;8322432;28;20131;-87
2022/03/29 07:39:54;;;;;;;14.73;9.07;;;;;;;;;;8312341;28;20124;-86
2022/03/29 07:44:02;;;;;;;18.13;9.10;;;;;;;;;;8318393;28;20386;-87
2022/03/29 07:48:06;;;;;;;17.48;8.55;;;;;;;;;;8332203;28;20068;-85
2022/03/29 07:52:10;;;;;;;16.13;8.75;;;;;;;;;;8647310;22;20049;-84
2022/03/29 07:56:13;;;;;;;13.57;7.40;;;;;;;;;;8333112;28;20053;-85
2022/03/29 08:00:35;;;;;;;14.43;7.65;;;;;;;;;;8334268;28;20485;-83
2022/03/29 08:04:37;;;;;;;;;;;;;;;;;;8311167;28;20043;-85
2022/03/29 08:08:41;;;;;;;;;;;;;;;;;;8298000;28;19922;-84
2022/03/29 08:12:44;;;;;;;14.02;8.38;;;;;;;;;;8305695;28;20007;-87
2022/03/29 08:16:48;;;;;;;15.40;8.00;;;;;;;;;;8302657;28;20069;-84
2022/03/29 08:20:51;;;;;;;17.02;8.98;;;;;;;;;;8306147;28;20485;-83
2022/03/29 08:24:56;;;;;;;20.65;9.30;;;;;;;;;;8306238;28;20148;-84
2022/03/29 08:28:58;;;;;;;17.23;9.27;;;;;;;;;;8307468;28;20046;-82
2022/03/29 08:33:02;;;;;;;12.63;8.52;;;;;;;;;;8299483;28;20046;-82
2022/03/29 08:37:05;;;;;;;15.82;9.15;;;;;;;;;;8299115;28;20096;-83
2022/03/29 08:41:11;;;;;;;13.20;8.75;;;;;;;;;;8298157;28;20054;-84
2022/03/29 08:45:15;;;;;;;19.30;9.23;;;;;;;;;;8298667;28;20504;-83
2022/03/29 08:49:20;;;;;;;14.68;8.88;;;;;;;;;;8297430;28;20078;-82
2022/03/29 08:53:23;;;;;;;16.33;9.55;;;;;;;;;;8310671;28;20080;-84
2022/03/29 08:57:28;;;;;;;20.23;10.13;;;;;;;;;;8326997;28;20054;-81
2022/03/29 09:01:31;;;;;;;16.92;9.77;;;;;;;;;;8303474;28;20046;-82
2022/03/29 09:05:35;;;;;;;16.67;10.07;;;;;;;;;;8306972;28;20045;-82
2022/03/29 09:09:41;;;;;;;16.05;9.45;;;;;;;;;;8313738;28;20079;-82
2022/03/29 09:13:45;;;;;;;14.88;9.07;;;;;;;;;;8314852;28;20128;-81
2022/03/29 09:17:49;;;;;;;19.05;11.38;;;;;;;;;;8320669;28;20628;-82
2022/03/29 09:21:55;;;;;;;15.80;9.82;;;;;;;;;;8288178;28;20053;-82
2022/03/29 09:26:00;;;;;;;17.17;9.93;;;;;;;;;;8316450;28;20400;-82
2022/03/29 09:30:12;;;;;;;14.80;9.70;;;;;;;;;;8302240;28;20057;-81
2022/03/29 09:34:17;;;;;;;17.10;12.15;;;;;;;;;;8303326;28;20382;-83
2022/03/29 09:38:26;;;;;;;15.80;10.15;;;;;;;;;;8304757;28;20539;-82
2022/03/29 09:42:29;;;;;;;18.02;11.18;;;;;;;;;;8302015;28;20092;-82
2022/03/29 09:46:54;;;;;;;16.33;11.15;;;;;;;;;;8301578;28;20100;-82
2022/03/29 09:51:00;;;;;;;20.92;11.90;;;;;;;;;;8303189;28;20045;-82
2022/03/29 09:55:13;;;;;;;17.52;12.23;;;;;;;;;;8300973;28;20093;-81
2022/03/29 09:59:17;;;;;;;20.52;12.35;;;;;;;;;;8307782;28;20100;-82
2022/03/29 10:03:26;;;;;;;19.40;12.88;;;;;;;;;;8303064;28;20080;-82
2022/03/29 10:07:31;;;;;;;21.58;13.27;;;;;;;;;;8301372;28;20390;-84
2022/03/29 10:11:35;;;;;;;19.33;13.50;;;;;;;;;;8303551;28;20042;-83
2022/03/29 10:15:40;;;;;;;23.73;14.00;;;;;;;;;;8312568;28;20103;-81
2022/03/29 10:19:47;;;;;;;19.52;12.45;;;;;;;;;;8331747;28;20091;-83
2022/03/29 10:23:51;;;;;;;18.20;13.13;;;;;;;;;;8321198;22;20116;-82
2022/03/29 10:27:55;;;;;;;19.92;14.18;;;;;;;;;;8326501;28;20133;-82
2022/03/29 10:32:00;;;;;;;26.58;15.80;;;;;;;;;;8317478;28;20061;-92
2022/03/29 10:36:09;;;;;;;24.27;14.00;;;;;;;;;;8330477;28;20057;-85
2022/03/29 10:40:37;;;;;;;20.10;13.95;;;;;;;;;;8326835;28;20056;-87
2022/03/29 10:45:03;;;;;;;22.20;14.85;;;;;;;;;;8326839;28;20137;-82
2022/03/29 10:49:25;;;;;;;23.60;15.48;;;;;;;;;;8319844;28;20056;-91
2022/03/29 10:53:37;;;;;;;28.75;16.88;;;;;;;;;;8324144;28;20025;-82
2022/03/29 10:58:05;;;;;;;26.35;16.13;;;;;;;;;;8327360;28;20041;-82
2022/03/29 11:02:09;;;;;;;24.85;15.75;;;;;;;;;;8318582;28;20139;-81
2022/03/29 11:06:17;;;;;;;26.00;16.23;;;;;;;;;;8315182;28;20468;-81
2022/03/29 11:10:23;;;;;;;27.05;17.38;;;;;;;;;;8322888;28;20045;-81
2022/03/29 11:14:39;;;;;;;24.73;16.13;;;;;;;;;;8323384;28;20049;-82
2022/03/29 11:18:45;;;;;;;24.00;15.98;;;;;;;;;;8323520;28;20045;-89
2022/03/29 11:22:50;;;;;;;26.80;17.05;;;;;;;;;;8319790;28;20057;-86
2022/03/29 11:26:59;;;;;;;24.67;15.50;;;;;;;;;;8313300;28;20045;-81
2022/03/29 11:31:03;;;;;;;26.58;16.42;;;;;;;;;;8323153;28;20045;-82
2022/03/29 11:35:09;;;;;;;25.50;14.80;;;;;;;;;;8316899;28;20055;-83
2022/03/29 11:39:23;;;;;;;26.13;14.40;;;;;;;;;;8314326;28;20514;-82
2022/03/29 11:43:28;;;;;;;25.42;15.70;;;;;;;;;;8311237;28;20038;-83
2022/03/29 11:47:31;;;;;;;24.98;16.20;;;;;;;;;;8313562;28;20053;-83
2022/03/29 11:51:34;;;;;;;23.27;14.90;;;;;;;;;;8315110;28;20049;-83
2022/03/29 11:55:37;;;;;;;27.95;14.35;;;;;;;;;;8325373;28;20041;-83
2022/03/29 11:59:42;;;;;;;24.85;15.27;;;;;;;;;;8327684;28;20045;-82
2022/03/29 12:03:47;;;;;;;24.92;15.18;;;;;;;;;;8321877;28;20057;-82
2022/03/29 12:07:55;;;;;;;25.17;15.07;;;;;;;;;;8330119;28;20477;-82
2022/03/29 12:12:02;;;;;;;25.85;15.13;;;;;;;;;;8329808;28;20504;-82
2022/03/29 12:16:18;;;;;;;24.63;15.50;;;;;;;;;;8323707;28;20049;-82
2022/03/29 12:20:34;;;;;;;27.63;16.20;;;;;;;;;;8329623;28;20053;-84
2022/03/29 12:24:39;;;;;;;27.33;17.10;;;;;;;;;;8329287;28;20132;-81
2022/03/29 12:28:44;;;;;;;25.88;16.38;;;;;;;;;;8335255;28;20057;-82
2022/03/29 12:32:48;;;;;;;29.38;17.88;;;;;;;;;;8336216;28;20077;-82
2022/03/29 12:36:53;;;;;;;27.85;16.92;;;;;;;;;;8335604;28;20054;-82
2022/03/29 12:40:59;;;;;;;29.05;17.13;;;;;;;;;;8335492;28;20132;-82
2022/03/29 12:45:03;;;;;;;28.17;17.33;;;;;;;;;;8335389;28;20401;-82
2022/03/29 12:49:08;;;;;;;30.25;17.48;;;;;;;;;;8335257;28;20049;-82
2022/03/29 12:53:11;;;;;;;32.97;17.33;;;;;;;;;;8335154;28;20041;-82
2022/03/29 12:57:16;;;;;;;27.95;18.05;;;;;;;;;;8335071;28;20489;-81
2022/03/29 13:01:27;;;;;;;29.52;17.90;;;;;;;;;;8333985;28;20064;-82
2022/03/29 13:05:37;;;;;;;28.00;17.58;;;;;;;;;;8329823;28;20481;-82
2022/03/29 13:09:58;;;;;;;31.50;17.95;;;;;;;;;;8330922;28;20543;-83
2022/03/29 13:14:04;;;;;;;29.38;18.42;;;;;;;;;;8331437;28;20042;-83
2022/03/29 13:18:23;;;;;;;28.38;17.80;;;;;;;;;;8332561;28;20056;-86
2022/03/29 13:22:27;;;;;;;30.35;18.48;;;;;;;;;;8329279;28;20108;-84
2022/03/29 13:26:31;;;;;;;29.85;17.98;;;;;;;;;;8333199;28;20042;-84
2022/03/29 13:30:35;;;;;;;27.92;16.05;;;;;;;;;;8329232;28;20045;-82
2022/03/29 13:34:38;;;;;;;25.33;15.23;;;;;;;;;;8324925;28;20049;-82
2022/03/29 13:38:44;;;;;;;52.25;28.10;;;;;;;;;;8332137;28;20041;-81
2022/03/29 13:42:48;;;;;;;40.28;21.10;;;;;;;;;;8333781;28;20503;-83
2022/03/29 13:46:50;;;;;;;31.90;18.73;;;;;;;;;;8333118;28;20045;-83
2022/03/29 13:50:53;;;;;;;33.80;18.55;;;;;;;;;;8329459;28;20050;-82
2022/03/29 13:54:58;;;;;;;33.85;17.13;;;;;;;;;;8331970;28;20042;-82
2022/03/29 13:59:15;;;;;;;34.65;17.95;;;;;;;;;;8330230;28;20050;-81
2022/03/29 14:03:33;;;;;;;;;;;;;;;;;;8333133;28;20053;-82
2022/03/29 14:07:58;;;;;;;35.95;19.40;;;;;;;;;;8333072;28;19975;-83
2022/03/29 14:12:22;;;;;;;33.63;18.92;;;;;;;;;;8332539;28;20049;-83
2022/03/29 14:16:47;;;;;;;45.10;25.55;;;;;;;;;;8334750;28;20056;-82
2022/03/29 14:21:06;;;;;;;74.40;35.55;;;;;;;;;;8332584;28;20037;-83
2022/03/29 14:25:26;;;;;;;39.65;21.10;;;;;;;;;;8331289;28;20120;-88
2022/03/29 14:29:47;;;;;;;41.97;22.80;;;;;;;;;;8323182;28;20041;-82
2022/03/29 14:34:00;;;;;;;38.70;21.50;;;;;;;;;;8326013;28;20496;-83
2022/03/29 14:38:09;;;;;;;74.93;36.95;;;;;;;;;;8331856;28;20037;-85
2022/03/29 14:42:29;;;;;;;38.53;21.48;;;;;;;;;;8331908;28;20045;-83
2022/03/29 14:46:46;;;;;;;;;;;;;;;;;;8326769;28;20045;-83
2022/03/29 14:51:02;;;;;;;37.38;19.05;;;;;;;;;;8330376;28;20284;-84
2022/03/29 14:55:21;;;;;;;41.75;21.08;;;;;;;;;;8321717;28;20045;-82
2022/03/29 14:59:27;;;;;;;37.80;19.55;;;;;;;;;;8330779;28;20128;-82
2022/03/29 15:03:40;;;;;;;32.38;18.10;;;;;;;;;;8319306;28;20050;-83
2022/03/29 15:08:05;;;;;;;43.05;20.38;;;;;;;;;;8325525;28;20045;-83
2022/03/29 15:12:20;;;;;;;41.33;20.00;;;;;;;;;;8330598;28;20132;-81
2022/03/29 15:16:46;;;;;;;43.03;23.67;;;;;;;;;;8324959;28;20053;-81
2022/03/29 15:21:43;;;;;;;41.53;20.63;;;;;;;;;;8304374;28;20045;-83
2022/03/29 15:26:17;;;;;;;44.90;21.77;;;;;;;;;;8301153;28;20408;-81
2022/03/29 15:31:00;;;;;;;39.08;19.10;;;;;;;;;;8309523;28;20045;-81
2022/03/29 15:35:25;;;;;;;37.90;19.23;;;;;;;;;;8307648;28;20485;-84
2022/03/29 15:39:47;;;;;;;37.60;19.58;;;;;;;;;;8330054;28;20500;-81
2022/03/29 15:43:52;;;;;;;40.30;19.20;;;;;;;;;;8322448;28;20053;-81
2022/03/29 15:47:56;;;;;;;37.25;18.50;;;;;;;;;;8326212;28;20049;-82
2022/03/29 15:52:00;;;;;;;44.42;20.75;;;;;;;;;;8331247;28;20050;-81
2022/03/29 15:56:05;;;;;;;61.80;28.33;;;;;;;;;;8306258;28;20046;-82
2022/03/29 16:00:13;;;;;;;52.53;24.67;;;;;;;;;;8314493;28;20449;-85
2022/03/29 16:04:17;;;;;;;47.63;23.65;;;;;;;;;;8322798;28;20111;-82
2022/03/29 16:08:21;;;;;;;49.15;23.20;;;;;;;;;;8328562;28;20500;-81
2022/03/29 16:12:25;;;;;;;54.03;25.80;;;;;;;;;;8324022;28;20042;-81
2022/03/29 16:16:28;;;;;;;39.85;20.73;;;;;;;;;;8326282;28;20042;-81
2022/03/29 16:20:31;;;;;;;44.95;21.83;;;;;;;;;;8333721;28;20037;-81
2022/03/29 16:24:35;;;;;;;38.58;20.15;;;;;;;;;;8322214;28;20502;-82
2022/03/29 16:28:42;;;;;;;40.20;21.73;;;;;;;;;;8321123;28;20038;-80
2022/03/29 16:32:46;;;;;;;48.90;24.73;;;;;;;;;;8331044;28;20460;-85
2022/03/29 16:36:50;;;;;;;57.65;25.88;;;;;;;;;;8312101;28;20124;-81
2022/03/29 16:40:53;;;;;;;41.88;20.98;;;;;;;;;;8329321;28;20405;-82
2022/03/29 16:44:58;;;;;;;45.42;23.75;;;;;;;;;;8328375;28;20753;-84
2022/03/29 16:49:02;;;;;;;46.22;23.30;;;;;;;;;;8322216;28;20129;-82
2022/03/29 16:53:05;;;;;;;45.10;23.40;;;;;;;;;;8330845;28;20041;-81
2022/03/29 16:57:08;;;;;;;39.00;20.13;;;;;;;;;;8334554;28;20045;-80
2022/03/29 17:01:13;;;;;;;44.17;22.25;;;;;;;;;;8331475;28;20136;-81
2022/03/29 17:05:16;;;;;;;41.92;22.92;;;;;;;;;;8328718;28;20046;-82
2022/03/29 17:09:19;;;;;;;37.10;21.17;;;;;;;;;;8334835;28;20390;-81
2022/03/29 17:13:22;;;;;;;34.65;19.55;;;;;;;;;;8334205;28;20404;-82
2022/03/29 17:17:30;;;;;;;39.42;20.25;;;;;;;;;;8335444;28;20053;-84
2022/03/29 17:21:34;;;;;;;43.17;21.35;;;;;;;;;;8334300;28;20080;-81
2022/03/29 17:25:37;;;;;;;45.35;19.95;;;;;;;;;;8322877;28;20698;-81
2022/03/29 17:29:40;;;;;;;45.70;22.67;;;;;;;;;;8334504;28;20053;-81
2022/03/29 17:33:45;;;;;;;46.95;20.90;;;;;;;;;;8334412;28;20115;-81
2022/03/29 17:37:49;;;;;;;49.88;23.48;;;;;;;;;;8333726;28;20049;-80
2022/03/29 17:41:53;;;;;;;45.28;21.70;;;;;;;;;;8333497;28;20045;-85
2022/03/29 17:45:59;;;;;;;50.10;24.17;;;;;;;;;;8333715;28;20516;-80
2022/03/29 17:50:08;;;;;;;50.83;24.98;;;;;;;;;;8333764;28;20530;-81
2022/03/29 17:54:18;;;;;;;44.85;22.85;;;;;;;;;;8333868;28;20045;-83
2022/03/29 17:58:28;;;;;;;47.40;23.35;;;;;;;;;;8333650;28;20049;-86
2022/03/29 18:02:34;;;;;;;47.05;21.25;;;;;;;;;;8333075;28;20056;-85
2022/03/29 18:06:38;;;;;;;51.60;22.85;;;;;;;;;;8330010;28;20049;-83
2022/03/29 18:10:43;;;;;;;51.50;23.27;;;;;;;;;;8331604;28;20492;-80
2022/03/29 18:14:46;;;;;;;55.65;27.17;;;;;;;;;;8331609;28;20311;-81
2022/03/29 18:18:51;;;;;;;70.13;31.02;;;;;;;;;;8337743;28;20151;-82
2022/03/29 18:22:57;;;;;;;58.17;28.45;;;;;;;;;;8332096;28;20128;-86
2022/03/29 18:27:01;;;;;;;54.55;25.88;;;;;;;;;;8331308;28;20045;-82
2022/03/29 18:31:04;;;;;;;61.13;27.50;;;;;;;;;;8332363;28;20078;-82
2022/03/29 18:35:10;;;;;;;62.92;28.25;;;;;;;;;;8331917;28;20042;-81
2022/03/29 18:39:17;;;;;;;59.38;27.23;;;;;;;;;;8332032;28;20041;-82
2022/03/29 18:43:21;;;;;;;62.35;28.08;;;;;;;;;;8332425;28;20060;-82
2022/03/29 18:47:26;;;;;;;57.47;24.50;;;;;;;;;;8330597;28;20126;-84
2022/03/29 18:51:31;;;;;;;56.42;25.08;;;;;;;;;;8322821;28;20057;-83
2022/03/29 18:55:35;;;;;;;49.20;23.92;;;;;;;;;;8330735;28;20061;-81
2022/03/29 18:59:41;;;;;;;56.33;26.13;;;;;;;;;;8330473;28;20045;-81
2022/03/29 19:03:44;;;;;;;47.78;22.85;;;;;;;;;;8330352;28;20055;-81
2022/03/29 19:07:49;;;;;;;54.85;25.63;;;;;;;;;;8330933;28;20056;-82
2022/03/29 19:11:55;;;;;;;53.90;23.08;;;;;;;;;;8323407;28;20052;-83
2022/03/29 19:16:02;;;;;;;58.15;26.83;;;;;;;;;;8329794;28;20068;-82
2022/03/29 19:20:06;;;;;;;60.58;25.55;;;;;;;;;;8327498;28;20496;-81
2022/03/29 19:24:10;;;;;;;47.10;21.50;;;;;;;;;;8324155;28;20059;-83
2022/03/29 19:28:15;;;;;;;50.20;23.00;;;;;;;;;;8330529;28;20053;-79
2022/03/29 19:32:22;;;;;;;49.92;23.95;;;;;;;;;;8331611;28;20115;-81
2022/03/29 19:36:31;;;;;;;44.47;22.48;;;;;;;;;;8329665;28;20484;-81
2022/03/29 19:40:34;;;;;;;54.83;23.70;;;;;;;;;;8325121;28;20124;-80
2022/03/29 19:44:45;;;;;;;57.70;25.27;;;;;;;;;;8330212;28;20072;-86
2022/03/29 19:48:58;;;;;;;57.92;24.65;;;;;;;;;;8330120;28;20049;-81
2022/03/29 19:53:07;;;;;;;50.67;25.70;;;;;;;;;;8325729;28;20478;-81
2022/03/29 19:57:14;;;;;;;47.08;22.30;;;;;;;;;;8323982;28;20049;-83
2022/03/29 20:01:19;;;;;;;43.35;22.23;;;;;;;;;;8318484;28;20507;-81
2022/03/29 20:05:26;;;;;;;45.97;22.50;;;;;;;;;;8321223;28;20041;-81
2022/03/29 20:09:29;;;;;;;45.67;20.30;;;;;;;;;;8325359;28;20072;-81
2022/03/29 20:13:32;;;;;;;41.70;19.45;;;;;;;;;;8324730;28;20477;-85
2022/03/29 20:17:38;;;;;;;39.20;17.52;;;;;;;;;;8317416;28;20168;-81
2022/03/29 20:21:41;;;;;;;39.55;19.00;;;;;;;;;;8323623;28;20565;-81
2022/03/29 20:25:45;;;;;;;45.30;20.60;;;;;;;;;;8325068;28;20085;-83
2022/03/29 20:29:48;;;;;;;44.47;21.10;;;;;;;;;;8329837;28;20072;-83
2022/03/29 20:33:52;;;;;;;51.72;23.25;;;;;;;;;;8329730;28;20069;-82
2022/03/29 20:37:56;;;;;;;57.13;24.88;;;;;;;;;;8330557;28;20099;-84
2022/03/29 20:41:59;;;;;;;50.67;24.05;;;;;;;;;;8329553;28;20076;-81
2022/03/29 20:46:04;;;;;;;51.53;22.92;;;;;;;;;;8329408;28;20473;-81
2022/03/29 20:50:10;;;;;;;66.32;26.92;;;;;;;;;;8335736;28;20401;-81
2022/03/29 20:54:14;;;;;;;61.00;25.65;;;;;;;;;;8335627;28;20084;-80
2022/03/29 20:58:17;;;;;;;80.60;26.95;;;;;;;;;;8335519;28;20483;-82
2022/03/29 21:02:20;;;;;;;64.85;26.30;;;;;;;;;;8335383;28;20050;-81
2022/03/29 21:06:24;;;;;;;65.93;26.05;;;;;;;;;;8335064;28;20060;-80
2022/03/29 21:10:29;;;;;;;63.70;25.55;;;;;;;;;;8335519;28;20048;-81
2022/03/29 21:14:33;;;;;;;50.05;22.38;;;;;;;;;;8334939;28;20042;-81
2022/03/29 21:18:36;;;;;;;57.17;24.05;;;;;;;;;;8334668;28;20608;-81
2022/03/29 21:22:43;;;;;;;51.70;23.65;;;;;;;;;;8334454;28;20114;-81
2022/03/29 21:26:46;;;;;;;58.33;24.58;;;;;;;;;;8299914;28;20061;-80
2022/03/29 21:30:48;;;;;;;54.75;22.42;;;;;;;;;;8334394;28;20049;-81
2022/03/29 21:34:51;;;;;;;54.00;22.48;;;;;;;;;;8321219;28;20049;-82
2022/03/29 21:38:56;;;;;;;51.00;21.85;;;;;;;;;;8333993;28;20405;-81
2022/03/29 21:42:58;;;;;;;51.03;20.23;;;;;;;;;;8334031;28;20598;-81
2022/03/29 21:47:03;;;;;;;50.35;20.90;;;;;;;;;;8333785;28;20049;-82
2022/03/29 21:51:06;;;;;;;50.95;20.83;;;;;;;;;;8334240;28;20508;-81
2022/03/29 21:55:11;;;;;;;47.30;20.88;;;;;;;;;;8333639;28;20053;-83
2022/03/29 21:59:13;;;;;;;71.28;28.33;;;;;;;;;;8333880;28;20060;-81
2022/03/29 22:03:16;;;;;;;73.05;26.73;;;;;;;;;;8333432;28;20041;-81
2022/03/29 22:07:19;;;;;;;55.38;21.10;;;;;;;;;;8333127;28;20056;-81
2022/03/29 22:11:24;;;;;;;58.72;23.30;;;;;;;;;;8333166;28;20046;-82
2022/03/29 22:15:26;;;;;;;58.17;25.75;;;;;;;;;;8332962;28;20049;-83
2022/03/29 22:19:29;;;;;;;50.30;22.85;;;;;;;;;;8338523;28;20432;-82
2022/03/29 22:23:31;;;;;;;47.97;19.60;;;;;;;;;;8332403;28;20561;-81
2022/03/29 22:27:37;;;;;;;52.42;20.90;;;;;;;;;;8332728;28;20477;-81
2022/03/29 22:31:40;;;;;;;46.33;20.75;;;;;;;;;;8332574;28;20046;-82
2022/03/29 22:35:43;;;;;;;53.20;21.52;;;;;;;;;;8332463;28;20490;-80
2022/03/29 22:39:46;;;;;;;66.47;25.05;;;;;;;;;;8325927;28;20042;-83
2022/03/29 22:43:50;;;;;;;42.97;19.10;;;;;;;;;;8332186;28;20045;-85
2022/03/29 22:47:54;;;;;;;45.25;20.10;;;;;;;;;;8331946;28;20132;-81
2022/03/29 22:51:57;;;;;;;41.03;17.17;;;;;;;;;;8332096;28;20056;-83
2022/03/29 22:57:15;;;;;;;45.47;17.35;;;;;;;;;;8331788;28;20041;-82
2022/03/29 23:00:25;;;;;;;49.10;19.33;;;;;;;;;;8331528;28;20120;-82
2022/03/29 23:04:27;;;;;;;48.58;19.25;;;;;;;;;;8331541;28;20050;-83
2022/03/29 23:08:30;;;;;;;45.53;19.15;;;;;;;;;;8331829;28;20412;-82
2022/03/29 23:12:33;;;;;;;46.10;19.13;;;;;;;;;;8330378;28;20103;-82
2022/03/29 23:16:37;;;;;;;48.55;19.10;;;;;;;;;;8331559;28;20049;-84
2022/03/29 23:20:39;;;;;;;49.65;18.02;;;;;;;;;;8331009;28;20496;-84
2022/03/29 23:24:45;;;;;;;42.88;17.25;;;;;;;;;;8330615;28;20053;-83
2022/03/29 23:28:48;;;;;;;41.20;16.77;;;;;;;;;;8331309;28;20045;-86
2022/03/29 23:32:52;;;;;;;40.08;17.02;;;;;;;;;;8330753;28;20046;-84
2022/03/29 23:36:55;;;;;;;46.45;17.67;;;;;;;;;;8328812;28;20049;-82
2022/03/29 23:40:57;;;;;;;40.38;16.70;;;;;;;;;;8325992;28;20050;-84
2022/03/29 23:45:00;;;;;;;38.80;16.98;;;;;;;;;;8330424;28;20459;-82
2022/03/29 23:49:05;;;;;;;41.50;17.73;;;;;;;;;;8330233;28;20080;-83
2022/03/29 23:53:08;;;;;;;47.08;17.90;;;;;;;;;;8330238;28;20042;-82
2022/03/29 23:57:11;;;;;;;42.65;18.52;;;;;;;;;;8330328;28;20113;-82
